»·PEaware :: N171MA KASE-KSUN

N171MA :: KASE-KSUN

FLIGHT INFORMATION

Flight Status: Arrived
Operator: Privately registered:
United States
More flights under this callsign
Pilot: Tim M. (868)
Aircraft: CIRRUS SR-22 TURBO
(S22T)
More flights by this aircraft type
Origin: KASE Aspen-Pitkin Co/Sardy
United States
Destination: KSUN Friedman Meml
United States
More flights between these airports :: More routes between these airports
Route: +LINDZ9 RIL RENAE EXILE TINRE BETRE
File this flight plan on PilotEdge
Remarks:
Altitude:
(Current/Filed)
18,000ft
Speed:
(Current/Filed)
183kts
Departed: 15-Aug-20 12:05 PM
Arrived: 15-Aug-20 02:38 PM
Distance/Time
Traveled:
421nm/2:33
Distance/Time
To Go:
Arrived

Flight Plot

Page will automatically refresh every two minutes.

Flight plan parsing failed; only flown route is shown


Map Options




Map Legend


Flown Route
Filed Route
Departure Airport
Arrival Airport
Navaid (VOR, NDB)
Fix

Horizontal Profiles

Position Reports

Time Latitude Longitude Heading Altitude Ground
Speed
15-Aug-20 11:41 39.227181 -106.869070 70 7837ft 0kts
15-Aug-20 11:42 39.227181 -106.869070 70 7837ft 0kts
15-Aug-20 11:43 39.227181 -106.869070 70 7837ft 0kts
15-Aug-20 11:44 39.227181 -106.869070 70 7837ft 0kts
15-Aug-20 11:45 39.227181 -106.869070 70 7837ft 0kts
15-Aug-20 11:46 39.227181 -106.869070 70 7837ft 0kts
15-Aug-20 11:47 39.227181 -106.869070 70 7837ft 0kts
15-Aug-20 11:48 39.227181 -106.869070 70 7837ft 0kts
15-Aug-20 11:49 39.227181 -106.869070 70 7837ft 0kts
15-Aug-20 11:50 39.227181 -106.869070 70 7837ft 0kts
15-Aug-20 11:51 39.227181 -106.869070 70 7837ft 0kts
15-Aug-20 11:52 39.227181 -106.869070 70 7837ft 0kts
15-Aug-20 11:53 39.227181 -106.869070 70 7837ft 0kts
15-Aug-20 11:54 39.226240 -106.868521 157 7837ft 9kts
15-Aug-20 11:55 39.223065 -106.867650 160 7837ft 15kts
15-Aug-20 11:56 39.219836 -106.866092 162 7837ft 11kts
15-Aug-20 11:57 39.216237 -106.863872 131 7837ft 12kts
15-Aug-20 11:58 39.214855 -106.863246 209 7837ft 0kts
15-Aug-20 11:59 39.214855 -106.863246 209 7837ft 0kts
15-Aug-20 12:00 39.214855 -106.863246 209 7837ft 0kts
15-Aug-20 12:01 39.214855 -106.863246 209 7837ft 0kts
15-Aug-20 12:02 39.214527 -106.863303 184 7837ft 9kts
15-Aug-20 12:03 39.211843 -106.863190 269 7837ft 7kts
15-Aug-20 12:04 39.229039 -106.872330 343 8142ft 115kts
15-Aug-20 12:05 39.262976 -106.880858 354 8864ft 129kts
15-Aug-20 12:06 39.287355 -106.907552 281 9704ft 136kts
15-Aug-20 12:07 39.294848 -106.955062 281 10588ft 135kts
15-Aug-20 12:08 39.302662 -107.003180 282 11422ft 138kts
15-Aug-20 12:09 39.310603 -107.052147 282 12265ft 141kts
15-Aug-20 12:10 39.336225 -107.090222 313 13114ft 142kts
15-Aug-20 12:11 39.364269 -107.126405 313 13956ft 143kts
15-Aug-20 12:12 39.386117 -107.166738 262 14787ft 145kts
15-Aug-20 12:13 39.377051 -107.218043 258 15607ft 147kts
15-Aug-20 12:14 39.367058 -107.269650 258 16417ft 149kts
15-Aug-20 12:15 39.356891 -107.321846 258 17225ft 150kts
15-Aug-20 12:16 39.346616 -107.374471 258 17975ft 154kts
15-Aug-20 12:17 39.334662 -107.435543 258 17989ft 190kts
15-Aug-20 12:18 39.321634 -107.501860 258 17978ft 188kts
15-Aug-20 12:19 39.308750 -107.567125 258 17979ft 187kts
15-Aug-20 12:20 39.307669 -107.629561 326 17970ft 185kts
15-Aug-20 12:21 39.356577 -107.651221 339 17980ft 185kts
15-Aug-20 12:22 39.405970 -107.671012 339 17983ft 186kts
15-Aug-20 12:23 39.455757 -107.690813 339 17981ft 187kts
15-Aug-20 12:24 39.505400 -107.710561 339 17982ft 187kts
15-Aug-20 12:25 39.547359 -107.744780 313 17982ft 180kts
15-Aug-20 12:26 39.582440 -107.790609 313 17977ft 176kts
15-Aug-20 12:27 39.616277 -107.835008 313 17983ft 174kts
15-Aug-20 12:28 39.651007 -107.880655 313 17983ft 180kts
15-Aug-20 12:29 39.686327 -107.927140 313 17981ft 181kts
15-Aug-20 12:30 39.721188 -107.973101 313 17981ft 178kts
15-Aug-20 12:31 39.753432 -108.015689 313 18439ft 167kts
15-Aug-20 12:32 39.787032 -108.060104 313 18411ft 175kts
15-Aug-20 12:33 39.821405 -108.105623 313 18385ft 177kts
15-Aug-20 12:34 39.856040 -108.151549 313 18361ft 178kts
15-Aug-20 12:35 39.890890 -108.197846 313 18334ft 179kts
15-Aug-20 12:37 39.925694 -108.244138 313 18310ft 179kts
15-Aug-20 12:38 39.960430 -108.290413 313 18305ft 175kts
15-Aug-20 12:39 39.994807 -108.336298 313 18310ft 178kts
15-Aug-20 12:40 40.029658 -108.382876 313 18310ft 180kts
15-Aug-20 12:41 40.064591 -108.429639 313 18308ft 180kts
15-Aug-20 12:42 40.099486 -108.476421 313 18308ft 180kts
15-Aug-20 12:43 40.134092 -108.522868 313 18308ft 175kts
15-Aug-20 12:44 40.168143 -108.568678 313 18311ft 177kts
15-Aug-20 12:45 40.201975 -108.614249 313 18319ft 175kts
15-Aug-20 12:46 40.236072 -108.660243 312 18326ft 174kts
15-Aug-20 12:47 40.269895 -108.705944 312 18337ft 175kts
15-Aug-20 12:48 40.304026 -108.752125 312 18344ft 178kts
15-Aug-20 12:49 40.338618 -108.799000 312 18347ft 178kts
15-Aug-20 12:49 40.367050 -108.837579 312 18349ft 177kts
15-Aug-20 12:51 40.406957 -108.891831 312 18347ft 177kts
15-Aug-20 12:52 40.436873 -108.942193 303 18350ft 175kts
15-Aug-20 12:53 40.464271 -108.995566 303 18344ft 177kts
15-Aug-20 12:53 40.487191 -109.040337 303 18336ft 177kts
15-Aug-20 12:55 40.519258 -109.103088 303 18326ft 177kts
15-Aug-20 12:56 40.546565 -109.156613 303 18315ft 173kts
15-Aug-20 12:56 40.569038 -109.200748 303 18314ft 174kts
15-Aug-20 12:57 40.595714 -109.253197 302 18308ft 172kts
15-Aug-20 12:59 40.627197 -109.315247 302 18306ft 173kts
15-Aug-20 12:59 40.649776 -109.359804 302 18313ft 177kts
15-Aug-20 13:00 40.677178 -109.413972 303 18320ft 178kts
15-Aug-20 13:01 40.704609 -109.468276 302 18328ft 178kts
15-Aug-20 13:02 40.731943 -109.522508 302 18338ft 177kts
15-Aug-20 13:03 40.759000 -109.576268 302 18348ft 176kts
15-Aug-20 13:04 40.786117 -109.630263 302 18357ft 177kts
15-Aug-20 13:05 40.813196 -109.684242 302 18361ft 171kts
15-Aug-20 13:06 40.839918 -109.737633 302 18367ft 176kts
15-Aug-20 13:07 40.867102 -109.792019 302 18366ft 178kts
15-Aug-20 13:08 40.894347 -109.846639 302 18365ft 178kts
15-Aug-20 13:09 40.921529 -109.901231 302 18364ft 178kts
15-Aug-20 13:10 40.942745 -109.943877 302 18370ft 177kts
15-Aug-20 13:11 40.959987 -109.978623 302 18377ft 176kts
15-Aug-20 13:12 40.986703 -110.032488 302 18394ft 175kts
15-Aug-20 13:13 41.013451 -110.086529 302 18406ft 176kts
15-Aug-20 13:14 41.040264 -110.140792 302 18421ft 176kts
15-Aug-20 13:15 41.067001 -110.195010 302 18428ft 175kts
15-Aug-20 13:16 41.093369 -110.248551 302 18425ft 172kts
15-Aug-20 13:17 41.119543 -110.301822 302 18429ft 172kts
15-Aug-20 13:18 41.146032 -110.355791 302 18430ft 176kts
15-Aug-20 13:19 41.172773 -110.410382 302 18429ft 176kts
15-Aug-20 13:20 41.199516 -110.465069 302 18429ft 176kts
15-Aug-20 13:21 41.226037 -110.519425 302 18429ft 175kts
15-Aug-20 13:22 41.252617 -110.573969 302 18428ft 176kts
15-Aug-20 13:23 41.279211 -110.628666 302 18427ft 176kts
15-Aug-20 13:24 41.306740 -110.682117 306 18432ft 173kts
15-Aug-20 13:25 41.336776 -110.732997 306 18437ft 175kts
15-Aug-20 13:26 41.366991 -110.784243 306 18441ft 176kts
15-Aug-20 13:27 41.397105 -110.835405 306 18442ft 176kts
15-Aug-20 13:28 41.427047 -110.886360 306 18444ft 172kts
15-Aug-20 13:29 41.457088 -110.937582 306 18415ft 176kts
15-Aug-20 13:30 41.487375 -110.989305 306 18379ft 177kts
15-Aug-20 13:31 41.517657 -111.041101 306 18341ft 177kts
15-Aug-20 13:32 41.548012 -111.093127 306 18307ft 178kts
15-Aug-20 13:33 41.578597 -111.145639 306 18281ft 178kts
15-Aug-20 13:34 41.608925 -111.197788 306 18282ft 177kts
15-Aug-20 13:35 41.639047 -111.249681 306 18283ft 176kts
15-Aug-20 13:36 41.669127 -111.301580 306 18283ft 177kts
15-Aug-20 13:37 41.699245 -111.353646 306 18281ft 177kts
15-Aug-20 13:38 41.729443 -111.405913 306 18280ft 176kts
15-Aug-20 13:39 41.759522 -111.458078 306 18280ft 176kts
15-Aug-20 13:40 41.789418 -111.510027 306 18281ft 176kts
15-Aug-20 13:41 41.819304 -111.562045 306 18280ft 176kts
15-Aug-20 13:42 41.849254 -111.614235 306 18281ft 176kts
15-Aug-20 13:43 41.879188 -111.666531 305 18282ft 176kts
15-Aug-20 13:44 41.908953 -111.718595 305 18282ft 176kts
15-Aug-20 13:45 41.939027 -111.771297 305 18288ft 176kts
15-Aug-20 13:46 41.968738 -111.823448 305 18302ft 176kts
15-Aug-20 13:47 41.998472 -111.875734 305 18313ft 176kts
15-Aug-20 13:48 42.028188 -111.928078 305 18318ft 176kts
15-Aug-20 13:49 42.058170 -111.980982 305 18318ft 176kts
15-Aug-20 13:50 42.087916 -112.033560 305 18312ft 176kts
15-Aug-20 13:51 42.117690 -112.086281 305 18303ft 177kts
15-Aug-20 13:52 42.147479 -112.139133 305 18301ft 176kts
15-Aug-20 13:53 42.180106 -112.188723 310 18301ft 177kts
15-Aug-20 13:54 42.212927 -112.238026 310 18301ft 176kts
15-Aug-20 13:55 42.245759 -112.287428 310 18302ft 177kts
15-Aug-20 13:56 42.278556 -112.336873 310 18301ft 177kts
15-Aug-20 13:57 42.311420 -112.386484 310 18300ft 177kts
15-Aug-20 13:58 42.344204 -112.436068 310 18300ft 177kts
15-Aug-20 13:59 42.377040 -112.485813 310 18299ft 176kts
15-Aug-20 14:00 42.409708 -112.535389 309 18300ft 176kts
15-Aug-20 14:01 42.442419 -112.585128 309 18299ft 176kts
15-Aug-20 14:02 42.475154 -112.634953 310 18299ft 176kts
15-Aug-20 14:03 42.507924 -112.684954 309 18305ft 178kts
15-Aug-20 14:04 42.540896 -112.735332 309 18303ft 178kts
15-Aug-20 14:05 42.573759 -112.785625 309 18301ft 178kts
15-Aug-20 14:06 42.606682 -112.836118 309 18282ft 179kts
15-Aug-20 14:07 42.639784 -112.886954 309 18260ft 179kts
15-Aug-20 14:08 42.672698 -112.937584 309 18258ft 178kts
15-Aug-20 14:09 42.705602 -112.988318 309 18256ft 178kts
15-Aug-20 14:10 42.738329 -113.038839 309 18258ft 178kts
15-Aug-20 14:11 42.771123 -113.089554 309 18255ft 178kts
15-Aug-20 14:12 42.803769 -113.140127 309 18254ft 178kts
15-Aug-20 14:13 42.836474 -113.190881 309 18254ft 178kts
15-Aug-20 14:14 42.869092 -113.241605 309 18254ft 178kts
15-Aug-20 14:15 42.901684 -113.292364 309 18256ft 178kts
15-Aug-20 14:16 42.934338 -113.343315 309 18253ft 178kts
15-Aug-20 14:17 42.966937 -113.394269 309 18254ft 178kts
15-Aug-20 14:18 42.999569 -113.445359 309 18254ft 178kts
15-Aug-20 14:19 43.032148 -113.496449 309 18253ft 178kts
15-Aug-20 14:20 43.064869 -113.549452 307 17769ft 195kts
15-Aug-20 14:21 43.100185 -113.608741 307 16584ft 205kts
15-Aug-20 14:22 43.133820 -113.671242 283 15375ft 204kts
15-Aug-20 14:23 43.145818 -113.745788 282 14190ft 197kts
15-Aug-20 14:24 43.156574 -113.817979 281 12992ft 188kts
15-Aug-20 14:25 43.166564 -113.885702 281 11777ft 177kts
15-Aug-20 14:26 43.176469 -113.953417 281 10602ft 192kts
15-Aug-20 14:27 43.194251 -114.021473 320 9389ft 198kts
15-Aug-20 14:28 43.236795 -114.067310 321 8575ft 180kts
15-Aug-20 14:29 43.273575 -114.106996 321 8586ft 162kts
15-Aug-20 14:31 43.309590 -114.145900 321 8594ft 168kts
15-Aug-20 14:32 43.347563 -114.183051 331 8594ft 166kts
15-Aug-20 14:33 43.386309 -114.210010 333 8029ft 144kts
15-Aug-20 14:34 43.422983 -114.235401 335 7130ft 143kts
15-Aug-20 14:35 43.455017 -114.257429 336 6373ft 112kts
15-Aug-20 14:36 43.480666 -114.273255 329 5724ft 99kts
15-Aug-20 14:37 43.501398 -114.293173 328 5296ft 58kts
15-Aug-20 14:38 43.502295 -114.295570 148 5296ft 25kts
15-Aug-20 14:39 43.498796 -114.293504 245 5296ft 0kts

Navigation Log

Ident Type
Flight plan parsing failed, navigation log unavailable